www .  g i u s e p p e r o s a t i  .  n e t
TERRE DI SIENA
Domenica 26 febbraio 2017
MONTERIGGIONI - SIENA
KM 18,750  D +200 m
ORDINE D'ARRIVO
In grassetto i primi di categoria
ASSOL. M / F CATEG. ATLETA ANNO SOCIETA' TEMPO TEMPO Min / Km
REALE
1 1 masch 1 Sen B m PAGANELLI MATTEO 1986 A.S.D. POL. CHIANCIANO TERME 1 09 03 1 09 03 3:50
2 2 masch 2 Sen B m PAGANELLI ALESSANDRO 1986 A.S.D.UISP CHIANCIANO 1 09 38 1 09 38 3:52
3 3 masch 3 Sen B m MONACI ALESSANDRO 1979 A.S.D. IL GREGGE RIBELLE 1 09 48 1 09 48 3:53
4 4 masch 4 Sen B m DEL GRATTA LUCA 1986 TEAM CELLFOOD 1 11 48 1 11 48 3:59
5 5 masch 1 Sen A m PEPARINI ANDREA 1991 A.S.D. POL. CHIANCIANO TERME 1 14 56 1 14 56 4:10
6 6 masch 1 Vet E m CARLINI STEFANO 1966 A.S.D. POL. CHIANCIANO TERME 1 15 52 1 15 52 4:13
7 7 masch 1 Vet F m PLACIDO GIANCARLO 1962 RUNNERS CHIETI 1 16 32 1 16 32 4:15
8 8 masch 5 Sen B m CHELI LUIGI 1983 A.S.D. TEAM MARATHON BIKE 1 16 44 1 16 44 4:16
9 9 masch 2 Vet F m FREDIANI MILENO 1962 MONTECATINI MARATHON A.S.D. 1 16 44 1 16 44 4:16
10 10 masch 1 Sen D m VALORI ROBERTO 1970 ASD POLISPORTIVA VOLTE BASSE 1 18 01 1 18 01 4:20
11 11 masch 6 Sen B m ALVINO FEDERICO 1987 S.S.D.S. MENS SANA IN CORPORE SANO 1 18 03 1 17 58 4:20
12 12 masch 2 Sen D m MALAVOLTI MARCO 1972 MENS SANA SIENA 1871 1 18 09 1 18 09 4:21
13 13 masch 2 Sen A m SACCÀ GIOVANNI 1989 1 18 16 1 17 48 4:21
14 14 masch 2 Vet E m SOLA MARCO 1967 G.S. SPLENDOR COSSATO 1 18 40 1 18 38 4:22
15 15 masch 1 Sen C m MANNINI CLAUDIO 1975 AVIS ZERO POSITIVO A.P.D. 1 19 00 1 19 00 4:23
16 16 masch 3 Vet E m BURRONI GIOVANNI 1964 A.S.D. S.P. TORRE DEL MANGIA 1 19 27 1 19 27 4:25
17 17 masch 3 Sen A m MARRICCHI LIVIO 1990 A.S.D.POL.OLIMPIA 1 20 15 1 20 14 4:28
18 18 masch 7 Sen B m PERICCIOLI FEDERICO 1979 ASD POLISPORTIVA VOLTE BASSE 1 21 17 1 21 17 4:31
19 19 masch 2 Sen C m CAINI MARCO 1976 SEVENLIFE SSD 1 21 27 1 21 18 4:32
20 20 masch 3 Vet F m MASINI GIOVANNI 1959 ASD LAVORATORI INTESA SANPAOLO 1 21 33 1 21 30 4:32
21 21 masch 3 Sen C m BURACCHI LUCA 1974 A.S.D. LE ANCELLE 1 22 16 1 22 11 4:34
22 22 masch 3 Sen D m PAJTA MATTEO 1968 PODISTICA QUARRATA A.S.D. 1 22 17 1 22 17 4:34
23 1 femm 1 Sen B f RAVELLI FRANCESCA 1979 PODISTICA PONTELUNGO BOLOGNA 1 22 28 1 22 24 4:35
24 23 masch 4 Sen C m OGGIANO GIORGIO 1977 ISOLOTTO A.P.D. 1 22 29 1 22 24 4:35
25 24 masch 5 Sen C m CORSINI FABRIZIO 1977 PICO RUNNERS 1 22 43 1 22 42 4:36
26 25 masch 6 Sen C m SERTORI GIUSEPPE 1977 RUNNERS CAPRIOLESE 1 23 17 1 23 11 4:38
27 26 masch 4 Vet E m CHIEZZI ALESSANDRO 1966 A.S.D. POL. CHIANCIANO TERME 1 23 47 1 23 45 4:39
28 27 masch 4 Sen A m DEL LUNGO STEFANO 1991 FALCHI-LECCO 1 24 21 1 24 21 4:41
29 28 masch 4 Sen D m PIERANGIOLI RANIERO 1971 GRUPPO POD. I RISORTI BUONCONVENTO A.S.D 1 24 25 1 24 19 4:41
30 29 masch 8 Sen B m GAZZEI MARCO 1984 SEVENLIFE SSD 1 24 27 1 24 27 4:42
31 30 masch 7 Sen C m MELE ANDREA 1974 VALDISERCHIO RUNNING TEAM 1 24 36 1 24 35 4:42
32 31 masch 9 Sen B m VESPA MATTEO 1985 LAZIO RUNNERS TEAM A.S.D. 1 24 36 1 24 28 4:42
33 32 masch 10 Sen B m DE MUNARI LUCA 1979 G.S. SPLENDOR COSSATO 1 24 51 1 24 49 4:43
34 2 femm 2 Sen B f MERLO BARBARA 1984 G.S. SPLENDOR COSSATO 1 24 51 1 24 50 4:43
35 33 masch 5 Sen D m PALMAS ANDREA 1972 A.S.D. G.S. BELLAVISTA 1 25 18 1 25 15 4:44
36 34 masch 11 Sen B m PICA ANEILLO 1979 A.S.D.POL.OLIMPIA 1 25 22 1 25 21 4:45
37 35 masch 1 Vet G m GIORGETTI GUIDO 1957 C.R. BANCA MONTE DEI PASCHI DI SIENA 1 25 23 1 25 22 4:45
38 36 masch 12 Sen B m PUCCI ALBANO 1986 POL. ARCI UISP VENTURINA 1 25 41 1 25 39 4:46
39 37 masch 4 Vet F m FLORA PIERMARIO 1962 1 26 08 1 25 43 4:47
40 38 masch 13 Sen B m MORASCHINI LUCA 1986 S.S.D.S. MENS SANA IN CORPORE SANO 1 26 09 1 26 04 4:47
41 39 masch 14 Sen B m MACHETTI GIAMPAOLO 1982 1 26 12 1 26 11 4:47
42 40 masch 8 Sen C m POGGIANI LUCA 1976 A.S.D. TEAM MARATHON BIKE 1 26 15 1 26 05 4:48
43 41 masch 5 Vet E m COLI LUIGI 1967 TAVARNELLE U. P. 1 26 18 1 26 09 4:48
44 42 masch 15 Sen B m FECI LUCA 1984 A.S.D. LA CHIANINA 1 26 22 1 26 13 4:48
45 43 masch 9 Sen C m PALMIERI FABIO 1974 MARATHON CLUB CRAL MPS 1 26 46 1 26 46 4:49
46 44 masch 16 Sen B m BELLANDI STEFANO 1978 A.S.C.D. SILVANO FEDI 1 26 58 1 26 50 4:50
47 45 masch 5 Sen A m FAUSTINI ALFREDO 1990 A.D. POLISPORTIVA LA BULLETTA 1 27 11 1 27 11 4:51
48 3 femm 3 Sen B f DALLA VALLE SILVIA 1979 G.P.VILLA VERUCCHIO 1 27 43 1 27 40 4:52
49 46 masch 17 Sen B m BOLLINI EMANUELE 1978 ASD GRUPPO PODISTICO VILLA VERUCCHIO 1 27 45 1 27 43 4:53
50 47 masch 5 Vet F m FINESCHI ROBERTO 1961 A.S.D. IL GREGGE RIBELLE 1 27 50 1 27 50 4:53
51 48 masch 10 Sen C m ROSATI MICHELE 1974 A.S.D. S.P. TORRE DEL MANGIA 1 27 53 1 27 51 4:53
52 49 masch 6 Vet E m CALABRIA LUCA 1965 RUNNERS CAPRIOLESE 1 27 55 1 27 49 4:53
53 50 masch 18 Sen B m PUGLISI GABRIELE 1979 POLISPORTIVA VOLTE BASSE 1 28 00 1 27 57 4:53
54 51 masch 7 Vet E m CUCINI MASSIMO 1967 A.S.D. G.S. BELLAVISTA 1 28 14 1 28 14 4:54
55 52 masch 6 Sen D m CICALI ROBERTO 1971 A.S.D. G.S. CAPPUCCINI 1972 1 28 15 1 28 12 4:54
56 53 masch 19 Sen B m SNICKARS CARLO 1984 1 28 22 1 28 17 4:55
57 54 masch 20 Sen B m BIONDI MICHELANGELO 1987 A.S.D. TEAM MARATHON BIKE 1 28 25 1 28 20 4:55
58 55 masch 7 Sen D m ARCHETTI CRISTIANO 1971 RUNNERS CAPRIOLESE 1 28 38 1 28 31 4:55
59 56 masch 21 Sen B m RUSCI DANIELE 1981 G.S. POLI - PODI A.S.D. 1 28 42 1 28 35 4:56
60 57 masch 8 Vet E m CASCIOLI GIANLUCA 1965 1 28 49 1 28 46 4:56
61 58 masch 9 Vet E m PIERI CARLO 1965 TAVARNELLE U. P. 1 28 51 1 28 41 4:56
62 59 masch 8 Sen D m PERICCIOLI SIMONE 1972 ASD POLISPORTIVA VOLTE BASSE 1 28 51 1 28 48 4:56
63 60 masch 9 Sen D m MANGIAVACCHI STEFANO 1968 C.R. BANCA MONTE DEI PASCHI DI SIENA 1 29 11 1 29 02 4:57
64 61 masch 22 Sen B m BANDIERA DAVIDE 1982 ATL. GNARRO JET MATTEI 1 29 16 1 29 00 4:58
65 4 femm 1 Sen C f MUCCI MERI 1975 ATL. CASTELLO 1 29 26 1 29 25 4:58
66 62 masch 10 Vet E m PAOLI SIMONE 1967 A.S.C.D. SILVANO FEDI 1 29 27 1 29 16 4:58
67 63 masch 23 Sen B m QUARANTA GIUSEPPE 1981 GS LE PANCHE  CASTELQUARTO A.s.d 1 29 49 1 29 47 4:59
68 64 masch 24 Sen B m SEDUTTORE CARMELO 1981 A.S.D. S.P. TORRE DEL MANGIA 1 29 51 1 29 39 5:00
69 65 masch 10 Sen D m CALZONI FRANCESCO 1970 A.S.D. IL GREGGE RIBELLE 1 29 54 1 29 48 5:00
70 66 masch 11 Sen C m ANDREI BENEDETTO 1973 A.S.D. POL. CHIANCIANO TERME 1 30 15 1 30 05 5:01
71 67 masch 12 Sen C m PERNIGOTTI CARLO 1973 GRUPPO PODISTICO ROSSINI 1 30 24 1 30 11 5:01
72 5 femm 2 Sen C f BRUSA MICAELA 1973 A.S.D. TEAM MARATHON BIKE 1 30 52 1 30 49 5:03
73 6 femm 4 Sen B f PEZZOTTI ANNAMARIA 1981 1 31 18 1 31 13 5:04
74 68 masch 25 Sen B m BARDELLI ALESSANDRO 1981 1 31 19 1 30 52 5:04
75 69 masch 11 Vet E m PEZZUCCHI GIOVANNI 1965 CLUB SPORTIVO FIRENZE 1 31 20 1 31 14 5:04
76 70 masch 11 Sen D m MINETTI LUCA 1972 A.S.D. SIENARUNNERS 1 31 48 1 31 44 5:06
77 71 masch 26 Sen B m BRANCHI FILIPPO 1979 CRAL DIPENDENTI COMUNALI FI 1 31 54 1 31 46 5:06
78 72 masch 13 Sen C m RADICCHI YURI 1974 ADP SAN GIMIGNANO 1 32 03 1 32 00 5:07
79 73 masch 14 Sen C m DE FILIPPO MARIO 1973 POL.CRAL BREDA 1 32 31 1 32 21 5:08
80 7 femm 1 Vet E f MARZOCCHI SILVA 1964 A.S.D. LE ANCELLE 1 32 35 1 32 31 5:09
81 74 masch 6 Vet F m PIER LUIGI SBROLLI 1961 UISP ABBADIA S. SALVATORE ASD 1 32 39 1 32 29 5:09
82 75 masch 7 Vet F m SPINELLI CARLO 1958 A.S.D. G.S. BELLAVISTA 1 32 45 1 32 44 5:09
83 76 masch 12 Sen D m BONACCHI TIZIANO 1969 1 32 46 1 32 35 5:09
84 77 masch 13 Sen D m BARONI PIERLUIGI 1969 1 32 46 1 32 18 5:09
85 78 masch 12 Vet E m CIARROCCHI MAURO 1963 1 32 47 1 32 18 5:09
86 79 masch 13 Vet E m GENTILE MASSIMO 1967 S.S. LAZIO ATLETICA LEGGERA 1 32 49 1 32 29 5:09
87 80 masch 8 Vet F m CIAMPOLINI FABRIZIO 1958 A.S.D. LE ANCELLE 1 32 51 1 32 45 5:09
88 8 femm 1 Sen D f DE GREGORIO LAURA 1971 LA FONTANINA 1 32 52 1 32 31 5:10
89 81 masch 15 Sen C m OLMASTRONI DUCCIO 1976 C.S. POGGIO AL VENTO 1 33 03 1 33 01 5:10
90 82 masch 14 Sen D m RONDINI SIMONE 1971 A.S.D. G.S. CAPPUCCINI 1972 1 33 03 1 32 57 5:10
91 83 masch 16 Sen C m GHINI FRANCESCO 1976 A.S.D. IL GREGGE RIBELLE 1 33 26 1 33 25 5:11
92 84 masch 15 Sen D m CRISTALLI CORRADO 1968 CESARE BATTISTI 1 33 35 1 33 35 5:12
93 85 masch 27 Sen B m PERRONE ANTONIO 1979 ASD NEW TEAM 1 33 58 1 33 54 5:13
94 86 masch 17 Sen C m MASI MARCO 1976 CESARE BATTISTI VERNIO 1 34 04 1 34 04 5:14
95 87 masch 16 Sen D m VOLTERRANI ALESSANDRO 1972 A.S.D. LE ANCELLE 1 34 06 1 34 02 5:14
96 9 femm 2 Vet E f BORRELLI PATRIZIA 1967 PODISTICA PONTELUNGO BOLOGNA 1 34 17 1 34 12 5:14
97 10 femm 1 Sen A f QUAQUARELLI GIULIA 1989 ATL. GNARRO JET MATTEI 1 34 17 1 34 01 5:14
98 88 masch 18 Sen C m CONTI LORENZO 1973 A.S.D. G.S. CAPPUCCINI 1972 1 34 19 1 34 13 5:14
99 89 masch 14 Vet E m CERVERIZZO GUIDO 1964 PODISTICA AMATORI POTENZA 1 34 24 1 34 09 5:15
100 90 masch 19 Sen C m MARRONI EDOARDO 1973 A.S.D. S.P. TORRE DEL MANGIA 1 34 56 1 34 49 5:16
101 91 masch 28 Sen B m TRIACCHINI ALESSIO 1986 1 34 56 1 34 24 5:16
102 92 masch 17 Sen D m VENTURI MICHELE 1970 A.S.D. TEAM MARATHON BIKE 1 34 58 1 34 49 5:17
103 93 masch 18 Sen D m GRAZZI GIANNI 1970 A.S.D. G.S. BELLAVISTA 1 35 18 1 35 14 5:18
104 94 masch 15 Vet E m CONCONI GIAMPIETRO 1963 1 35 19 1 35 10 5:18
105 95 masch 9 Vet F m FRANGIONI NICOLA 1962 ISOLOTTO A.P.D. 1 35 31 1 35 25 5:18
106 96 masch 19 Sen D m PONTI ALESSANDRO 1972 MARCIATORI DESIO 1 35 38 1 35 23 5:19
107 97 masch 16 Vet E m FALCONI MIRCO 1967 A.S.D. TEAM MARATHON BIKE 1 35 38 1 35 30 5:19
108 11 femm 3 Vet E f RASPI LUCIA 1966 G.P.PIOMBINO AVIS 1 35 48 1 35 48 5:19
109 98 masch 17 Vet E m MORGIANI RICCARDO 1967 A.S.D. TEAM MARATHON BIKE 1 35 49 1 35 40 5:19
110 99 masch 20 Sen D m NANNI GIULIO 1971 A.S.D. S.P. TORRE DEL MANGIA 1 35 52 1 35 45 5:20
111 100 masch 20 Sen C m ERMINI EMANUELE 1976 A.S.D. SIENARUNNERS 1 35 56 1 35 34 5:20
112 101 masch 18 Vet E m MACCARINI FABIO 1963 A.S.D. TEAM MARATHON BIKE 1 36 11 1 36 03 5:21
113 102 masch 21 Sen D m LENZINI MICHELE 1970 SOCIETA' TRIESTE 1 36 13 1 35 59 5:21
114 103 masch 21 Sen C m RICCI RICCARDO 1973 1 36 15 1 36 06 5:21
115 104 masch 19 Vet E m VELLETRI LUCA 1966 A.S.D. FONDI RUNNERS 2010 1 36 27 1 36 09 5:22
116 105 masch 10 Vet F m RULLO FERDINANDO 1962 ASD RUNNERS CHIETI 1 36 45 1 36 31 5:23
117 106 masch 11 Vet F m OLIVIERI GAETANO 1962 1 36 46 1 36 22 5:23
118 107 masch 29 Sen B m LORIGA TOMMASO 1986 1 36 57 1 36 57 5:23
119 12 femm 5 Sen B f VICHI SUSANNA 1983 A.S.D. TEAM MARATHON BIKE 1 36 59 1 36 38 5:23
120 108 masch 22 Sen D m MOSCATELLI STEFANO 1970 A.S.D. TEAM MARATHON BIKE 1 36 59 1 36 51 5:23
121 109 masch 30 Sen B m BALDASSINI MATTEO 1978 ASD PODISTICA EMPOLESE 1986 1 37 28 1 37 28 5:25
122 110 masch 31 Sen B m CALZONI STEFANO 1981 A.S.D. IL GREGGE RIBELLE 1 37 37 1 37 32 5:25
123 111 masch 23 Sen D m NENCINI FABRIZIO 1970 APD SAN GIMIGNANO 1 37 41 1 37 35 5:26
124 112 masch 24 Sen D m RICCI DOMENICO 1969 A.S.D. FONDI RUNNERS 2010 1 37 47 1 37 29 5:26
125 113 masch 32 Sen B m BRUNI ANDREA 1983 A.S.D. POL. CHIANCIANO TERME 1 38 07 1 37 44 5:27
126 114 masch 33 Sen B m DUCHINI FABIO 1985 A.S.D. LA CHIANINA 1 38 07 1 37 45 5:27
127 115 masch 34 Sen B m MUREDDU GIANNI 1982 A.S.D. POL. CHIANCIANO TERME 1 38 07 1 37 45 5:27
128 116 masch 35 Sen B m CHIEZZI STEFANO 1982 A.S.D. POL. CHIANCIANO TERME 1 38 07 1 37 45 5:27
129 117 masch 20 Vet E m PASQUINI FRANCO 1967 1 38 26 1 38 17 5:28
130 13 femm 4 Vet E f SESTINI ARABELLA 1966 A.S.D. G. POD.  R. VALENTI 1 38 45 1 38 45 5:29
131 14 femm 2 Sen D f PEDRONI EMANUELA 1971 G.S.IL FIORINO 1 38 47 1 38 47 5:29
132 118 masch 36 Sen B m GARAFFI ALESSANDRO 1982 S.S.D.S MENS SANA IN CORPORE SANO 1 38 50 1 38 43 5:29
133 119 masch 37 Sen B m CAPPELLI DUCCIO 1980 A.S.D. IL GREGGE RIBELLE 1 38 51 1 38 44 5:30
134 120 masch 21 Vet E m SENESI MASSIMILIANO 1966 MARATHON CLUB CRAL MPS 1 38 51 1 38 19 5:30
135 15 femm 3 Sen D f MORINI MICHELA 1971 MONTECATINI MARATHON A.S.D. 1 38 53 1 38 53 5:30
136 121 masch 1 Vet H m MARRAZZO ANTONIO 1951 A.S.D. G.S. CAPPUCCINI 1972 1 38 55 1 38 55 5:30
137 16 femm 6 Sen B f BACIU MIHAELA 1980 A.S.D. TEAM KM SPORT 1 38 56 1 38 49 5:30
138 122 masch 22 Vet E m BERTASI AMEDEO 1965 BANCHETTE RUNNERS A.S.D. 1 39 06 1 38 58 5:30
139 123 masch 25 Sen D m PANARIELLO ANIELLO 1969 A.S.D. ATLETICA GNARRO JET MATTEI 1 39 17 1 39 01 5:31
140 124 masch 26 Sen D m GIANNETTI CLAUDIO 1971 GRUPPO POD. I RISORTI BUONCONVENTO A.S.D 1 39 33 1 39 23 5:32
141 125 masch 38 Sen B m DEBOLINI COSIMO 1980 A.S.D. IL GREGGE RIBELLE 1 39 50 1 39 50 5:33
142 126 masch 27 Sen D m CENCETTI STEFANO 1972 ASS.POLISPORTIVA DIL.S.GIMIGNANO 1 39 50 1 39 44 5:33
143 127 masch 23 Vet E m TANZINI SILVANO 1967 MARATHON CLUB CRAL MPS 1 39 53 1 39 39 5:33
144 128 masch 28 Sen D m COMENSOLI LUCA 1972 KINETIK RUNNING 1 40 02 1 39 49 5:33
145 129 masch 24 Vet E m MACCHITELLA FABRIZIO 1966 ASS. POL. SCANDIANESE 1 40 13 1 40 13 5:34
146 130 masch 39 Sen B m PULITA LUCA 1986 1 40 16 1 39 49 5:34
147 131 masch 12 Vet F m CORSI MARCO 1961 A.S.D. G.S. BELLAVISTA 1 40 18 1 40 09 5:34
148 132 masch 40 Sen B m MANETTI ALESSANDRO 1978 1 40 23 1 40 14 5:35
149 133 masch 22 Sen C m FERRARESE LUCIANO RAFFAELE 1977 A.S.D. GRAVINA FESTINA LENTE! 1 40 29 1 40 09 5:35
150 134 masch 29 Sen D m TARLI GIOVANNI 1969 C.S. POGGIO AL VENTO 1 40 39 1 40 20 5:36
151 135 masch 2 Vet G m MANZINI STEFANO 1955 ATL. CASTELLO 1 40 44 1 40 37 5:36
152 136 masch 25 Vet E m PISCIOTTA FRANCESCO 1967 G.A.A.C. 2007 VERONAMARATHON 1 40 49 1 40 41 5:36
153 137 masch 13 Vet F m COLI CARLO 1961 A.S.D. S.P. TORRE DEL MANGIA 1 40 53 1 40 32 5:36
154 138 masch 3 Vet G m TARENZI MORENO 1957 G.S. ZELOFORAMAGNO 1 40 57 1 40 51 5:37
155 17 femm 3 Sen C f BORLANDI ELENA 1976 ATL. NOVESE 1 41 01 1 40 51 5:37
156 139 masch 30 Sen D m PANTI SIMONE 1971 SEVENLIFE SSD 1 41 20 1 40 57 5:38
157 140 masch 4 Vet G m AMADDII ROBERTO 1957 A.S.D. SIENARUNNERS 1 41 34 1 41 27 5:39
158 18 femm 1 Vet G f RAVERA LIDIA 1954 CIRCOLO AMATORI PODISTI 1 41 40 1 41 34 5:39
159 141 masch 14 Vet F m BERTACCA ALFREDO 1962 A.S.D. AVIS STIAVA 1 41 45 1 41 23 5:39
160 142 masch 31 Sen D m GARZIA DANIELE 1968 A.S.D. LE ANCELLE 1 41 48 1 41 44 5:39
161 143 masch 32 Sen D m CAMPAGNESE ANTONIO 1969 POLISPORTIVA VOLTE BASSE 1 41 49 1 41 49 5:39
162 144 masch 15 Vet F m TADDEUCCI PAOLO 1960 A.S.D. LA CHIANINA 1 41 55 1 41 46 5:40
163 145 masch 33 Sen D m BIANCO MICHELE 1969 1 41 59 1 41 56 5:40
164 19 femm 4 Sen C f BINI ARIANNA 1973 LA FONTANINA ass. promozione sociale 1 41 59 1 41 42 5:40
165 146 masch 1 Vet I m PIERATTELLI LUIGI 1947 A.S.D. G.S. CAPPUCCINI 1972 1 42 04 1 41 56 5:40
166 147 masch 23 Sen C m EUPIZI LUIGI 1973 A.D. POL. LA BULLETTA 1 42 07 1 41 56 5:40
167 148 masch 24 Sen C m GIOMI DAVID 1974 POL.OLIMPIA 1 42 08 1 41 58 5:40
168 149 masch 25 Sen C m MAFFEI MARCO 1973 C.S. POGGIO AL VENTO 1 42 10 1 42 02 5:41
169 150 masch 26 Vet E m MORTOLA ALESSANDRO 1967 ATLETICA DUE PERLE 1 42 11 1 42 00 5:41
170 151 masch 34 Sen D m PECCHIOLI STEFANO 1969 NAVE U. S. A.S.D. 1 42 17 1 41 53 5:41
171 152 masch 26 Sen C m BULLETTI ALESSANDRO 1973 1 42 34 1 42 25 5:42
172 153 masch 27 Vet E m BALDI ALESSIO 1965 PODISTICA QUARRATA A.S.D. 1 42 43 1 42 16 5:42
173 154 masch 35 Sen D m PROFILO ALESSANDRO 1970 1 42 44 1 42 33 5:42
174 155 masch 41 Sen B m BROGI GIULIO 1979 1 42 46 1 42 46 5:43
175 156 masch 5 Vet G m VENDRAMIN GIOVANNI 1957 G.S. LE PANCHE CASTELQUARTO 1 42 47 1 42 45 5:43
176 157 masch 42 Sen B m NUTI MICHELE 1978 M.S. CASTELSENIO 1 42 57 1 42 36 5:43
177 158 masch 6 Vet G m VALENTINI BRUNO 1955 CRAL MONTEPASCHI 1 43 05 1 43 03 5:44
178 159 masch 28 Vet E m SANTINI SIMONE 1966 VIVI SIENA 1 43 12 1 43 07 5:44
179 160 masch 27 Sen C m PAGANI ANDREA 1974 1 43 16 1 43 16 5:44
180 20 femm 1 Vet F f CACACE CARMELA 1959 A.S.D. LE ANCELLE 1 43 19 1 43 14 5:44
181 161 masch 29 Vet E m VIVALDI ERNESTO 1965 CIRCOLO AMATORI PODISTI 1 43 20 1 43 13 5:44
182 162 masch 43 Sen B m VANNI PAOLO 1984 A.S.D.POL.OLIMPIA 1 43 41 1 43 41 5:46
183 163 masch 44 Sen B m CASTELLANI ANDREA 1984 1 43 41 1 43 38 5:46
184 164 masch 28 Sen C m MILAN CLAUDIO 1977 LA VETTA RUNNING 1 43 47 1 43 34 5:46
185 21 femm 2 Sen A f ZACCANTI IRENE 1989 PODISTICA PONTELUNGO BOLOGNA 1 43 47 1 43 43 5:46
186 165 masch 2 Vet H m PALMERI GIUSEPPE 1951 GRUPPO PODISTICO FRAT.ZA POP.DI GRASSINA 1 43 58 1 43 46 5:47
187 166 masch 36 Sen D m BECATTI STEFANO 1972 MARATHON CLUB CRAL MPS 1 44 03 1 43 55 5:47
188 22 femm 3 Sen A f SANTORI AMBRA 1990 ASD LE ANCELLE 1 44 04 1 44 00 5:47
189 167 masch 45 Sen B m GRANDI MARCO 1980 A.S.D. SIENARUNNERS 1 44 10 1 44 04 5:47
190 168 masch 46 Sen B m FANESCHI LORENZO 1982 1 44 11 1 44 11 5:47
191 169 masch 16 Vet F m CIVAI GIANNI 1961 A.S.D. G.S. MONTEAPERTI 1 44 11 1 43 51 5:47
192 170 masch 47 Sen B m BOVINI CHRISTIAN 1983 1 44 11 1 44 09 5:47
193 171 masch 37 Sen D m MAGNANI ALESSANDRO 1972 ATL. GNARRO JET MATTEI 1 44 22 1 44 05 5:48
194 172 masch 3 Vet H m DI VIRGILIO GIANFEDERICO 1950 G.A.A.C. 2007 VERONAMARATHON 1 44 26 1 44 26 5:48
195 173 masch 38 Sen D m ATERINI MARCO 1968 1 44 30 1 44 18 5:48
196 174 masch 39 Sen D m CRISTOFANI RAFFAELE 1972 1 44 30 1 44 18 5:48
197 175 masch 30 Vet E m MOZZILLO NICOLA 1967 POLISPORTIVA VOLTE BASSE 1 44 59 1 44 57 5:50
198 176 masch 17 Vet F m DI CLEMENTE MARCO 1959 MARATHON CLUB CRAL MPS 1 45 06 1 44 40 5:50
199 177 masch 48 Sen B m MASTRANGELI SPARTACO 1979 1 45 14 1 44 55 5:51
200 23 femm 7 Sen B f TOGNETTI LINDA 1985 S.S.D.S. MENS SANA IN CORPORE SANO 1 45 17 1 45 10 5:51
201 24 femm 2 Vet F f BIGLIAZZI PAOLA 1960 A.S.D. IL GREGGE RIBELLE 1 45 58 1 45 52 5:53
202 178 masch 49 Sen B m VILLA GIACOMO 1978 A.S.D. ATL. MARCIATORI MUGELLO 1 46 14 1 46 14 5:54
203 179 masch 29 Sen C m DEL TEMPORA LUCA 1975 ATLETICA MARCIATORI MUGELLO 1 46 14 1 46 12 5:54
204 180 masch 18 Vet F m BENEDETTI ANGELO 1958 1 46 26 1 46 06 5:55
205 25 femm 8 Sen B f ZUCCO BARBARA 1982 A.S.D. ATLETICA GNARRO JET MATTEI 1 46 28 1 46 11 5:55
206 26 femm 9 Sen B f TRIMERI ELISA 1983 A.S.D. ATLETICA GNARRO JET MATTEI 1 46 28 1 46 11 5:55
207 181 masch 50 Sen B m PULITA DANIELE 1982 GARDA TRENTINO TRAIL 1 46 36 1 46 10 5:55
208 182 masch 6 Sen A m FERRANDI FILIPPO 1991 MARATHON CLUB CRAL MPS 1 46 49 1 46 47 5:56
209 183 masch 51 Sen B m FIORINI NICCOLO' 1987 MARATHON CLUB CRAL MPS 1 46 49 1 46 16 5:56
210 184 masch 31 Vet E m ORSOLINI ANDREA 1965 SOCIETA' TRIESTE 1 46 56 1 46 42 5:56
211 27 femm 4 Sen D f MAZZINI MILENA 1972 A.S.D. ATLETICA GNARRO JET MATTEI 1 46 57 1 46 41 5:57
212 185 masch 32 Vet E m FICOZZI PAOLO 1963 IL PONTE SCANDICCI ASD PODISTI 1 47 02 1 46 58 5:57
213 186 masch 40 Sen D m ZACCHETTI CESARE 1969 1 47 07 1 46 40 5:57
214 187 masch 33 Vet E m COSSU DAVIDE 1965 A.S.D. TEAM MARATHON BIKE 1 47 17 1 46 49 5:58
215 188 masch 30 Sen C m MARIOTTI MICHELE 1977 PODISTICA PONTELUNGO BOLOGNA 1 47 28 1 47 23 5:58
216 28 femm 5 Vet E f SALVI ELENA 1966 FLYING WOMEN CYCLING TEAM A.S.D. 1 47 35 1 47 18 5:59
217 29 femm 6 Vet E f DI NATALE MONICA 1967 A.S.C.D. SILVANO FEDI 1 47 45 1 47 34 5:59
218 189 masch 19 Vet F m VERNACCHIA FRANCO 1961 ATL.PIETRASANTA VERSILIA 1 48 00 1 47 40 6:00
219 30 femm 5 Sen D f SERNI CLARISSA 1972 A.S.D. LE ANCELLE 1 48 07 1 48 02 6:00
220 190 masch 41 Sen D m MENTIL MASSIMO 1972 1 48 15 1 47 51 6:01
221 191 masch 42 Sen D m BASSI FRANCESCO 1972 ASS. SPORTIVA DIL. VIVI SIENA 1 48 37 1 48 21 6:02
222 31 femm 7 Vet E f BACCETTI BEATRICE 1966 ISOLOTTO A.P.D. 1 48 39 1 48 32 6:02
223 32 femm 8 Vet E f BIZZARRI BIANCA 1967 LA FONTANINA 1 48 40 1 48 21 6:02
224 192 masch 52 Sen B m PALMADESSA SIMONE 1981 AVIS ZERO POSITIVO A.P.D. 1 48 53 1 48 33 6:03
225 33 femm 10 Sen B f ALFARANO EMANUELA 1985 AVIS ZERO POSITIVO A.P.D. 1 48 53 1 48 32 6:03
226 193 masch 43 Sen D m GORNI FABIO PIETRO 1971 A.S.D. C.U.S. BRESCIA 1 48 56 1 48 43 6:03
227 34 femm 11 Sen B f LORENZINI CHIARA 1978 A.S.D. G. POD.  R. VALENTI 1 49 02 1 48 55 6:03
228 35 femm 3 Vet F f MENGONI ROBERTA 1960 G.S.AMATORI PODISTICA AREZZO 1 49 11 1 49 06 6:04
229 194 masch 20 Vet F m BELLINI ALESSANDRO 1960 ASS. SPORTIVA DIL. VIVI SIENA 1 49 18 1 49 03 6:04
230 195 masch 7 Sen A m CASTELLI DANIELE 1992 ATLETICA CONCESIO 2009 1 49 25 1 49 17 6:05
231 36 femm 2 Vet G f ALVISI PAOLA 1955 G.S. LE PANCHE CASTELQUARTO 1 49 28 1 49 18 6:05
232 196 masch 4 Vet H m DE FUSCO ALBERTO 1952 ATLETICA ISOLA D'ELBA 1 49 33 1 49 30 6:05
233 37 femm 9 Vet E f BALZANO SIMONETTA 1966 ATLETICA ISOLA D'ELBA 1 49 33 1 49 31 6:05
234 197 masch 34 Vet E m PISTOLESI FAUSTO 1967 FRATELLANZA POPOLARE DI GRASSINA 1 49 43 1 49 32 6:06
235 198 masch 35 Vet E m SILI LUIGI 1964 A.D. POL. LA BULLETTA 1 49 45 1 49 28 6:06
236 38 femm 5 Sen C f COTTA RAMOSINO LAURA 1974 A.S. AMATORI VILLA PAMPHILI 1 49 49 1 49 32 6:06
237 199 masch 44 Sen D m GUERRI LORENZO 1972 POLISPORTIVA ATLETICA I'GIGLIO 1 49 58 1 49 30 6:07
238 39 femm 6 Sen C f BURBERI SARA 1977 AVIS ZERO POSITIVO A.P.D. 1 50 22 1 50 02 6:08
239 200 masch 31 Sen C m MARTONE GIANLUCA 1975 1 50 27 1 49 59 6:08
240 40 femm 4 Vet F f STEFANUCCI PAOLA 1961 A.S.D. SIENARUNNERS 1 50 33 1 50 25 6:09
241 201 masch 36 Vet E m PETTAZZONI FRANCO 1963 PODISTICA PONTELUNGO BOLOGNA 1 50 46 1 50 46 6:09
242 41 femm 12 Sen B f SIGNORINI CHIARA 1981 PODISTICA PONTELUNGO BOLOGNA 1 50 46 1 50 41 6:09
243 202 masch 32 Sen C m GIOIA GABRIELE 1974 1 50 50 1 50 45 6:09
244 203 masch 45 Sen D m FELICI EUGENIO 1968 AVIS FOIANO 1 50 59 1 50 32 6:10
245 204 masch 53 Sen B m PECCIANTI MARCO 1978 S.S.D.S. MENS SANA IN CORPORE SANO 1 51 00 1 50 35 6:10
246 205 masch 37 Vet E m VASTA FRANCESCO 1967 ASD LAVORATORI INTESA SANPAOLO 1 51 10 1 51 05 6:11
247 206 masch 38 Vet E m ORLANDINI SANDRO 1967 A.S.D. G.S. BELLAVISTA 1 51 12 1 51 09 6:11
248 42 femm 6 Sen D f MARZUCCHI SILVIA 1970 S.S.D.S. MENS SANA IN CORPORE SANO 1 51 13 1 51 10 6:11
249 43 femm 10 Vet E f LAPOMARDA ROSALISA 1967 DOMANI ARRIVA SEMPRE 1 51 19 1 50 53 6:11
250 207 masch 8 Sen A m BRUNI TOMMASO 1990 1 51 23 1 51 20 6:11
251 44 femm 5 Vet F f MEINI VIVIANA 1962 ASD LAVORATORI INTESA SANPAOLO 1 51 26 1 51 21 6:11
252 208 masch 7 Vet G m BRACCI ROBERTO 1953 G.S. POLIZIA DI STATO 1 51 36 1 51 36 6:12
253 209 masch 46 Sen D m OLIMPI STEFANO 1971 1 51 38 1 51 06 6:12
254 45 femm 7 Sen C f CILLI CINZIA 1974 SOCIETA' TRIESTE 1 51 40 1 51 26 6:12
255 210 masch 39 Vet E m VANNUCCINI CARLO 1963 SOCIETA' TRIESTE 1 51 40 1 51 27 6:12
256 211 masch 40 Vet E m PANERAI ALESSIO 1966 MISERICORDIA DI VERNIO CESARE BATTISTI 1 51 54 1 51 43 6:13
257 46 femm 7 Sen D f RUBERTI MICHELA 1969 A.S.D. MARCIATORI ANTRACCOLI 1 52 00 1 51 41 6:13
258 212 masch 54 Sen B m BONECHI SIMONE 1986 A.S.D. POLISPORTIVA OLIMPIA 1 52 06 1 52 04 6:14
259 213 masch 41 Vet E m BERSANI PAOLO 1965 TIMOROSI ASTENERSI 1 52 17 1 52 04 6:14
260 47 femm 8 Sen C f LOSAVIO ELEONORA 1974 A.S.D. LE ANCELLE 1 52 26 1 52 23 6:15
261 214 masch 42 Vet E m BERTUCCELLI RICCARDO 1965 ASD SEVENTIES RUNNING TEAM LUC 1 52 29 1 52 07 6:15
262 48 femm 11 Vet E f GELSI ADA LUCIA 1965 ASS.POLISPORTIVA DIL.S.GIMIGNANO 1 52 29 1 52 17 6:15
263 215 masch 43 Vet E m ANSELMI GIANNI 1963 SEVENLIFE SSD 1 52 36 1 52 12 6:15
264 49 femm 12 Vet E f PINI DANIELA 1964 CIRCOLO AMATORI PODISTI 1 52 42 1 52 36 6:16
265 216 masch 21 Vet F m CESARE GIUSEPPE 1959 1 52 44 1 52 32 6:16
266 217 masch 9 Sen A m GIUBBILEI TOMMASO 1990 POLISPORTIVA TRIESTE 1 52 51 1 52 41 6:16
267 50 femm 9 Sen C f FORASIEPI SILVIA 1973 LA FONTANINA ass. promozione sociale 1 53 05 1 52 46 6:17
268 218 masch 33 Sen C m FACCHINI ANGELO 1973 1 53 30 1 53 02 6:18
269 219 masch 34 Sen C m MARTINI MARCO 1973 A.S.D. SIENARUNNERS 1 53 51 1 53 44 6:20
270 51 femm 13 Vet E f SPEZIN LUCIA 1963 RUNCARD 1 53 52 1 53 23 6:20
271 220 masch 35 Sen C m ZECCHI CRISTIANO 1975 POL. PORTA SARAGOZZA 1 53 56 1 53 42 6:20
272 221 masch 55 Sen B m PISTOI SIMONE 1980 1 54 01 1 53 58 6:20
273 52 femm 13 Sen B f MAGGI MARTINA 1979 A.S.D. S.P. TORRE DEL MANGIA 1 54 02 1 54 00 6:20
274 53 femm 6 Vet F f DEL VESPA ANNA 1962 SOCIETA' TRIESTE 1 54 04 1 53 50 6:20
275 222 masch 44 Vet E m SALVETTI CARLO 1964 1 54 06 1 53 33 6:20
276 223 masch 45 Vet E m BETTINI ALESSANDRO 1964 1 54 07 1 53 37 6:20
277 54 femm 10 Sen C f PAOLI ILARIA 1974 ASD SEVENTIES RUNNING TEAM LUC 1 54 09 1 53 47 6:21
278 55 femm 3 Vet G f CHIAPPA LUCIA 1957 GRUPPO MARCIATORI BARGA 1 54 20 1 54 06 6:21
279 56 femm 8 Sen D f TESI BARBARA 1972 POD. MISERICORDIA AGLIANESE 19 1 54 21 1 54 04 6:21
280 224 masch 46 Vet E m BARONI FRANCO 1967 A.S.D. AURORA ARCI RAVACCIANO 1948 1 54 26 1 53 57 6:21
281 225 masch 47 Sen D m INCATASCIATO EMMANUEL 1972 MARATHON CLUB CRAL MPS 1 54 28 1 54 10 6:22
282 57 femm 14 Sen B f USSEGLIO ELISA PRINSI 1985 1 54 45 1 54 17 6:23
283 226 masch 36 Sen C m SOFFI FRANCESCO 1976 CESARE BATTISTI VERNIO 1 54 45 1 54 35 6:23
284 58 femm 9 Sen D f ROSSI ELENA 1968 A.S.D. TEAM MARATHON BIKE 1 54 47 1 54 39 6:23
285 227 masch 47 Vet E m ROSA MATTEO 1963 PISA ROAD RUNNERS CLUB 1 54 48 1 54 33 6:23
286 59 femm 7 Vet F f ISABELLA GIULIA 1958 1 54 48 1 54 42 6:23
287 60 femm 10 Sen D f PARRI DAMIANA 1970 AVIS FOIANO 1 54 57 1 54 31 6:23
288 228 masch 22 Vet F m SCARZELLO OSVALDO 1960 1 55 01 1 54 49 6:23
289 229 masch 48 Vet E m BRACAGLIA PAOLO 1964 GRUPPO PODISTI RESCO 1909 1 55 25 1 55 05 6:25
290 230 masch 49 Vet E m POSARELLI PAOLO 1966 A.S.D.POLISPORTIVA OLIMPIA 1 55 31 1 55 20 6:25
291 231 masch 48 Sen D m MEZZEDIMI GIANMARCO 1968 POL.OLIMPIA 1 55 31 1 55 20 6:25
292 61 femm 14 Vet E f BELLEZZA SONIA 1966 A.S.D. TEAM MARATHON BIKE 1 55 35 1 55 26 6:25
293 62 femm 11 Sen C f RUS AURICA 1974 1 55 46 1 55 20 6:26
294 63 femm 11 Sen D f BINDI LINDA 1972 POL. ARCI UISP VENTURINA 1 56 01 1 56 00 6:27
295 232 masch 49 Sen D m COSCIA ALESSIO 1968 POL. ARCI UISP VENTURINA 1 56 01 1 56 01 6:27
296 233 masch 37 Sen C m BUCCIANTINI MASSIMO 1973 POL. ARCI UISP VENTURINA 1 56 02 1 56 01 6:27
297 64 femm 12 Sen D f ALLODI PAOLA 1969 TRIATHLON DUATHLON CREMONA 1 56 18 1 55 54 6:28
298 234 masch 50 Sen D m BELSANTI FRANCESCO 1970 C.S. POGGIO AL VENTO 1 56 28 1 56 09 6:28
299 235 masch 50 Vet E m COLLEPICCOLO ANDREA 1964 ATL. TUSCULUM 1 56 46 1 56 27 6:29
300 65 femm 8 Vet F f CESARONI PINA 1958 ATL. TUSCULUM 1 56 46 1 56 27 6:29
301 66 femm 4 Sen A f ALBERGHINI CHIARA 1993 PODISTICA PONTELUNGO BOLOGNA 1 56 51 1 56 50 6:30
302 236 masch 51 Vet E m LAICO FRANCO 1966 IL PONTE SCANDICCI A.S.D. PODISTICA 1 57 02 1 56 55 6:30
303 237 masch 56 Sen B m BARONE ANDREA 1980 RUNCARD 1 57 18 1 57 16 6:31
304 67 femm 13 Sen D f FASCIANA LILLA 1972 A.S.C.D. SILVANO FEDI 1 57 18 1 57 07 6:31
305 238 masch 51 Sen D m TUCI MASSIMO 1968 POL. CIRCOLO AZIENDALE BREDA 1 57 19 1 57 08 6:31
306 239 masch 2 Vet I m BRACCI EDOARDO 1947 PISA ROAD RUNNERS CLUB 1 57 28 1 57 12 6:32
307 68 femm 15 Sen B f DONATI CRISTINA 1980 ATL.PIETRASANTA VERSILIA 1 57 35 1 57 15 6:32
308 240 masch 52 Vet E m BIANCHINI LEONARDO 1967 MEZZANA LE LUMACHE A.S.D. 1 57 46 1 57 33 6:33
309 69 femm 12 Sen C f LORENZINI TIZIANA 1975 1 57 52 1 57 49 6:33
310 241 masch 53 Vet E m MEI MASSIMO 1964 LA FONTANINA ass. promozione sociale 1 58 09 1 57 49 6:34
311 242 masch 8 Vet G m FALSINI ROBERTO 1957 AMATORI PODISTICA AREZZO 1 58 09 1 58 05 6:34
312 70 femm 14 Sen D f GRISENDI PAMELA 1972 ASD POL. RUBIERA 1 58 26 1 58 08 6:35
313 243 masch 5 Vet H m SCARPINI FABRIZIO 1950 MARATHON CLUB CRAL MPS 1 58 45 1 58 29 6:36
314 244 masch 38 Sen C m GRANDIS FRANCESCO 1976 NAVE U. S. A.S.D. 1 58 48 1 58 21 6:36
315 245 masch 23 Vet F m VENDALI MAURO 1958 CARICENTRO 1 58 49 1 58 21 6:36
316 71 femm 9 Vet F f GHIRARDI TIZIANA 1961 CIRCOLO AMATORI PODISTI 1 58 54 1 58 42 6:36
317 246 masch 6 Vet H m TAVELLI ALBERTO 1952 CIRCOLO AMATORI PODISTI 1 58 55 1 58 47 6:36
318 72 femm 16 Sen B f PAPA VALENTINA 1981 PODISMO UNIFI 1 59 15 1 58 48 6:38
319 73 femm 5 Sen A f RASPANTI FEDERICA 1992 1 59 16 1 58 48 6:38
320 247 masch 52 Sen D m SOZZI FRANCESCO 1971 LA FONTANINA 1 59 16 1 58 53 6:38
321 74 femm 15 Sen D f PALLAI SONIA 1971 S.S.D.S. MENS SANA IN CORPORE SANO 1 59 30 1 59 28 6:38
322 248 masch 54 Vet E m CALDINI ANDREA 1967 G.S.D. LIBERTAS LA TORRE 1 59 49 1 59 28 6:39
323 249 masch 24 Vet F m GAMBERINI MAURIZIO 1959 POL. PORTA SARAGOZZA 1 59 50 1 59 32 6:39
324 250 masch 9 Vet G m GRANDIS FULVIO 1953 NAVE U. S. A.S.D. 1 59 58 1 59 31 6:40
325 75 femm 17 Sen B f BRAGA ELENA 1978 CIRCOLO AMATORI PODISTI 2 00 09 1 59 56 6:41
326 251 masch 55 Vet E m PATERNO' SILVIO RICCARDO 1963 KOASS MILANO SSARL 2 00 09 1 59 39 6:41
327 252 masch 7 Vet H m BRUNO FRANCESCO 1951 G.S. ZELOFORAMAGNO 2 00 14 2 00 07 6:41
328 253 masch 57 Sen B m LORENZETTI SIMONE 1981 2 00 54 2 00 51 6:43
329 76 femm 4 Vet G f TERZUOLI GIANNA 1957 A.S.D. AURORA ARCI RAVACCIANO 1948 2 01 07 2 00 43 6:44
330 77 femm 15 Vet E f FABBRI ROBERTA 1967 MONTERIGGIONI SPORT CULTURA 2 01 07 2 00 41 6:44
331 254 masch 25 Vet F m SPINONI MARCO 1961 2 01 42 2 01 14 6:46
332 78 femm 10 Vet F f FERRI MARZIA 1958 2 01 50 2 01 34 6:46
333 79 femm 13 Sen C f SAVOIA MARA GIOVANNA 1973 CAMISANO RUNNING A.S.D. 2 02 00 2 01 41 6:47
334 255 masch 53 Sen D m GIAVALDI CAMILLO LUCA 1971 2 02 01 2 01 28 6:47
335 256 masch 26 Vet F m SPINI MARIO 1962 2 02 02 2 01 32 6:47
336 80 femm 18 Sen B f BONI GRETA 1980 2 02 02 2 01 32 6:47
337 257 masch 27 Vet F m TAVANTI MARCO 1961 NAVE U. S. A.S.D. 2 02 16 2 01 52 6:48
338 81 femm 16 Sen D f LANDI BARBARA 1969 NAVE U. S. A.S.D. 2 02 17 2 01 51 6:48
339 82 femm 19 Sen B f ALAMANNI AGNESE 1981 NAVE U. S. A.S.D. 2 02 22 2 01 57 6:48
340 83 femm 17 Sen D f LAZZARO ROSANNA 1972 NAVE U. S. A.S.D. 2 02 23 2 01 58 6:48
341 84 femm 18 Sen D f SODINI ILARIA ISABELLA 1969 ASD SEVENTIES RUNNING TEAM LUC 2 02 27 2 02 07 6:48
342 85 femm 16 Vet E f BREGA DANIELA 1964 A.S.D. IL GREGGE RIBELLE 2 02 28 2 02 03 6:48
343 258 masch 54 Sen D m GIANNONE MAURIZIO 1971 LA FONTANINA ASS. PROMOZIONALE SOCIALE 2 02 33 2 02 11 6:49
344 86 femm 19 Sen D f GIOVINE SILVIA 1968 A.S.D. FONDI RUNNERS 2010 2 02 45 2 02 28 6:49
345 87 femm 14 Sen C f STORCHI SIMONA 1977 C.U.S. BOLOGNA A.S.D. 2 03 18 2 03 04 6:51
346 88 femm 15 Sen C f BANDINELLI LAURA 1976 SSDS MENS SANA IN CORPORE SANO 2 03 19 2 02 49 6:51
347 89 femm 16 Sen C f MOLINARO ELENA 1976 SEVENLIFE SSD 2 03 22 2 02 59 6:51
348 259 masch 56 Vet E m RAGGI DAVIDE 1966 NAVE U. S. A.S.D. 2 03 25 2 03 01 6:51
349 260 masch 57 Vet E m FALORNI MAURIZIO 1963 NAVE U. S. A.S.D. 2 03 25 2 03 00 6:51
350 90 femm 17 Sen C f PASQUINI VALENTINA 1977 NAVE U. S. A.S.D. 2 03 25 2 03 01 6:51
351 91 femm 18 Sen C f CECIONI LUCIA 1974 NAVE U. S. A.S.D. 2 03 25 2 03 01 6:51
352 261 masch 58 Vet E m BARONI FABIO 1964 NAVE U. S. A.S.D. 2 03 25 2 03 00 6:51
353 92 femm 19 Sen C f BORDINA GIULIA 1977 BANDA DEI MALANDRINI A.S.D. 2 03 27 2 03 01 6:52
354 262 masch 55 Sen D m MARTELLI RICCARDO 1970 NAVE U. S. A.S.D. 2 03 27 2 03 01 6:52
355 263 masch 10 Vet G m RIBAS JOSE ROBERTO 1956 RUNCARD 2 03 31 2 03 01 6:52
356 93 femm 20 Sen C f FRANCESCHETTI ZAIDA 1975 PLAYLIFE PONZANO 2 03 41 2 03 14 6:52
357 264 masch 28 Vet F m GIANNINI PAOLO 1962 A.S.D. G.S. MONTEAPERTI 2 04 08 2 03 47 6:54
358 94 femm 21 Sen C f BIAGINI ARIANNA 1975 GS FRATRES FILECCHIO 2 04 29 2 04 13 6:55
359 95 femm 20 Sen B f TUDOSI VICTORIA 1981 2 05 11 2 04 54 6:57
360 96 femm 6 Sen A f CAPALBO EVELYN 1990 ASD LE ANCELLE 2 05 57 2 05 53 7:00
361 97 femm 21 Sen B f BLANDA LIBERA 1979 A.S.D. ATLETICA GNARRO JET MATTEI 2 06 36 2 06 19 7:02
362 265 masch 29 Vet F m BERCIGLI MAURO 1959 NAVE U. S. A.S.D. 2 06 39 2 06 13 7:02
363 98 femm 5 Vet G f RIANI ANNA PAOLA 1956 GS FRATRES FILECCHIO 2 06 40 2 06 25 7:02
364 99 femm 20 Sen D f RINDI LAURA 1972 2 06 45 2 06 45 7:03
365 266 masch 56 Sen D m GRASSINI MICHELE 1968 ASD POLISPORTIVA SANGIULIANESE 2 06 45 2 06 40 7:03
366 100 femm 21 Sen D f SARTORI STEFANIA 1969 ATL. GNARRO JET MATTEI 2 06 47 2 06 31 7:03
367 267 masch 58 Sen B m PECCHENINI LUCA 1979 2 07 38 2 07 07 7:05
368 101 femm 7 Sen A f MARTIGNONI VITTORIA 1993 2 07 59 2 07 54 7:07
369 268 masch 30 Vet F m MARTIGNONI MASSIMO 1962 2 08 00 2 07 54 7:07
370 269 masch 11 Vet G m PRESEGLIO MASSIMO 1957 2 08 21 2 08 08 7:08
371 102 femm 22 Sen D f MALETI MARINELLA 1968 PASSO CAPPONI ASD 2 08 50 2 08 35 7:09
372 270 masch 59 Vet E m PRAMPOLINI SERGIO 1964 2 08 50 2 08 35 7:09
373 271 masch 12 Vet G m DI MANNO CLAUDIO 1957 A.S.D. FONDI RUNNERS 2010 2 09 51 2 09 33 7:13
374 103 femm 17 Vet E f MALAGNINI SUSANNA 1967 PICO RUNNERS 2 09 52 2 09 37 7:13
375 104 femm 22 Sen C f CARMIGNANI CHIARA 1974 G.S. LAMMARI 2 09 53 2 09 32 7:13
376 105 femm 23 Sen D f CADEI SILVIA 1969 CIRCOLO AMATORI PODISTI 2 11 13 2 11 00 7:17
377 106 femm 23 Sen C f GIOVANNONI SERENA 1973 A.S.D. AVIS STIAVA 2 11 13 2 10 51 7:17
378 107 femm 18 Vet E f CARRETTIN MONICA 1966 SPOTORNI RUN 2 12 34 2 12 12 7:22
379 272 masch 60 Vet E m MARCHIORI FABIO 1966 SPOTORNI 2 12 35 2 12 12 7:22
380 273 masch 59 Sen B m GATTA RUDY 1978 2 12 51 2 12 51 7:23
381 274 masch 3 Vet I m ANGHINELLI ALBERTO 1946 G.S. ZELOFORAMAGNO 2 12 59 2 12 52 7:23
382 108 femm 11 Vet F f MASSA MARTINA 1962 A.S.D. G. POD.  R. VALENTI 2 13 02 2 12 37 7:23
383 109 femm 19 Vet E f PAGLIAI ROBERTA 1967 G.P. CODOGNO 82 2 13 16 2 12 58 7:24
384 275 masch 61 Vet E m MARCOCCI GIANNI 1967 A.S.D. G. POD.  R. VALENTI 2 13 27 2 13 15 7:25
385 276 masch 62 Vet E m GIANNETTI ANDREA 1963 A.S.D. G. POD.  R. VALENTI 2 13 27 2 12 56 7:25
386 277 masch 39 Sen C m ANTONINI PAOLO FRANCESCO 1975 2 13 59 2 13 28 7:27
387 110 femm 20 Vet E f KUHNEN DOROTHEA 1965 ASD GRUPPO PODISTICO IL CRAMPO 2 15 22 2 14 55 7:31
388 111 femm 21 Vet E f COROTTI FRANCESCA 1967 G.P. CASALESE 2 15 52 2 15 33 7:33
389 112 femm 22 Vet E f SCARPANTI SIMONA 1967 G.P. CASALESE 2 15 52 2 15 33 7:33
390 278 masch 63 Vet E m ULIVELLI MARCO 1963 S.S.D.S. MENS SANA IN CORPORE SANO 2 16 18 2 16 01 7:34
391 279 masch 64 Vet E m DI ALESSANDRO ANDREA 1964 G.S.D. LIBERTAS LA TORRE 2 16 38 2 16 16 7:35
392 113 femm 22 Sen B f GRASSI SARA 1978 POL. R. MURRI ELLERA 2 17 15 2 17 03 7:38
393 114 femm 24 Sen C f ROTELLA ANGELA 1973 PISA ROAD RUNNERS CLUB 2 17 16 2 17 01 7:38
394 115 femm 25 Sen C f BARDETTI SILVIA 1974 G.P. CODOGNO 82 2 17 16 2 16 58 7:38
395 116 femm 24 Sen D f CASALI MILENA 1971 A.S.D. DINAMO SPORT 2 18 36 2 18 32 7:42
396 117 femm 26 Sen C f TREVISI ALESSIA 1977 RUNCARD 2 20 20 2 20 06 7:48
397 280 masch 65 Vet E m BUSSENI ROBERTO 1963 A.S.D. C.U.S. BRESCIA 2 20 23 2 19 53 7:48
398 281 masch 8 Vet H m SCHIMMENTI ANGELO 1952 ASD PODISTICA AMATORI CASTELFRANCHESI 2 21 26 2 21 08 7:51
399 282 masch 31 Vet F m CECCANTI ANDREA 1960 ASD PODISTICA AMATORI CASTELFRANCHESI 2 21 26 2 21 10 7:51
400 283 masch 13 Vet G m DELLA MONICA VINCENZO 1954 GP CORNO GIOVINE 2 22 34 2 22 29 7:55
401 118 femm 8 Sen A f DELLA MONICA MATILDE 1989 GP CORNO GIOVINE 2 22 34 2 22 29 7:55
402 119 femm 9 Sen A f MALAVASI ALICE 1989 JOY RUNNER ASD 2 22 41 2 22 27 7:56
403 120 femm 12 Vet F f NEACSU ELENA 1961 PICO RUNNERS 2 25 11 2 24 58 8:04
404 284 masch 32 Vet F m NANNETTI GIULIANO 1961 A.S.D. S.P. TORRE DEL MANGIA 2 28 53 2 28 20 8:16
405 285 masch 66 Vet E m CASALI ERNESTO 1964 G.S. ZELOFORAMAGNO 2 34 53 2 34 53 8:36
406 286 masch 14 Vet G m ANASTASIA GIUSEPPE 1954 ASD ORTICA TEAM 2 35 02 2 34 44 8:37
407 121 femm 23 Vet E f AMBROSIO MARIA ELENA 1964 2 37 07 2 36 37 8:44
408 122 femm 27 Sen C f ULISSE MARTA 1976 A.S. ROMA ROAD R.CLUB 2 38 17 2 37 48 8:48
409 123 femm 25 Sen D f SAKAKIBARA HITOMI 1968 2 40 10 2 40 10 8:54
410 287 masch 4 Vet I m LIVERANI SERGIO 1931 A.S.D. IL GREGGE RIBELLE 2 42 20 2 42 02 9:01
411 124 femm 13 Vet F f CAVALLARO MILVIA 1962 PODISMO MUGGIANO 2 46 22 2 45 53 9:15
412 125 femm 14 Vet F f BIESUZ CARLA 1959 2 51 09 2 50 36 9:31
413 288 masch 9 Vet H m SOSTEGNI CLAUDIO 1952 SEVENLIFE SSD 2 55 41 2 55 11 9:46
414 289 masch 15 Vet G m FIORETTI MAURIZIO 1954 MARATHON CREMONA 2 57 57 2 57 32 9:53
www . g i u s e p p e r o s a t i . n e t
l a  m e m o r i a  d e l l e  t u e  c o r s e
e qualcosa di più…